createdAt,value
2022-09-24T00:00:27.871Z,12.33
2022-09-24T00:02:56.682Z,12.40
2022-09-24T00:05:29.124Z,12.56
2022-09-24T00:07:57.595Z,12.62
2022-09-24T00:10:29.033Z,12.67
2022-09-24T00:12:59.872Z,12.59
2022-09-24T00:15:31.630Z,12.47
2022-09-24T00:18:06.596Z,12.37
2022-09-24T00:20:38.659Z,12.16
2022-09-24T00:23:09.477Z,12.16
2022-09-24T00:26:07.439Z,12.28
2022-09-24T00:28:36.345Z,12.23
2022-09-24T00:31:23.379Z,12.15
2022-09-24T00:33:52.563Z,12.11
2022-09-24T00:36:32.000Z,11.85
2022-09-24T00:39:05.374Z,12.00
2022-09-24T00:41:42.992Z,11.95
2022-09-24T00:44:46.288Z,12.01
2022-09-24T00:47:47.845Z,12.14
2022-09-24T00:50:32.510Z,12.13
2022-09-24T00:53:26.161Z,12.20
2022-09-24T00:55:58.735Z,12.14
2022-09-24T00:58:28.773Z,12.08
2022-09-24T01:01:06.300Z,12.07
2022-09-24T01:03:42.683Z,11.99
2022-09-24T01:06:16.950Z,12.02
2022-09-24T01:08:51.066Z,12.00
2022-09-24T01:12:35.048Z,11.87
2022-09-24T01:15:42.325Z,11.78
2022-09-24T01:18:41.694Z,11.63
2022-09-24T01:21:31.885Z,11.45
2022-09-24T01:24:26.576Z,11.34
2022-09-24T01:27:04.499Z,11.33
2022-09-24T01:29:42.692Z,11.16
2022-09-24T01:32:23.789Z,11.31
2022-09-24T01:35:04.333Z,11.29
2022-09-24T01:37:40.469Z,11.32
2022-09-24T01:40:15.696Z,11.36
2022-09-24T01:42:46.566Z,11.48
2022-09-24T01:45:16.631Z,11.46
2022-09-24T01:47:51.123Z,11.20
2022-09-24T01:50:26.266Z,11.18
2022-09-24T01:53:13.891Z,11.16
2022-09-24T01:55:50.960Z,11.16
2022-09-24T01:58:52.568Z,11.11
2022-09-24T02:02:05.200Z,11.05
2022-09-24T02:04:42.515Z,10.78
2022-09-24T02:07:46.128Z,10.86
2022-09-24T02:10:24.811Z,10.70
2022-09-24T02:13:08.626Z,10.69
2022-09-24T02:15:46.209Z,10.65
2022-09-24T02:18:25.636Z,10.62
2022-09-24T02:20:58.394Z,10.60
2022-09-24T02:23:45.518Z,10.58
2022-09-24T02:26:27.538Z,10.65
2022-09-24T02:28:59.573Z,10.67
2022-09-24T02:31:36.003Z,10.62
2022-09-24T02:34:23.369Z,10.65
2022-09-24T02:37:17.450Z,10.59
2022-09-24T02:39:51.462Z,10.54
2022-09-24T02:42:22.814Z,10.46
2022-09-24T02:44:52.816Z,10.51
2022-09-24T02:47:25.707Z,10.47
2022-09-24T02:49:57.508Z,10.36
2022-09-24T02:52:26.464Z,10.29
2022-09-24T02:54:59.567Z,10.39
2022-09-24T02:57:30.003Z,10.36
2022-09-24T03:00:01.692Z,10.44
2022-09-24T03:02:32.731Z,10.48
2022-09-24T03:05:02.160Z,10.36
2022-09-24T03:07:39.285Z,10.42
2022-09-24T03:10:09.387Z,10.34
2022-09-24T03:12:38.506Z,10.29
2022-09-24T03:15:10.549Z,10.31
2022-09-24T03:17:42.311Z,10.31
2022-09-24T03:20:12.896Z,10.38
2022-09-24T03:22:44.384Z,10.36
2022-09-24T03:25:13.036Z,10.37
2022-09-24T03:27:41.008Z,10.45
2022-09-24T03:30:33.991Z,10.43
2022-09-24T03:33:07.389Z,10.37
2022-09-24T03:35:37.822Z,10.31
2022-09-24T03:38:05.894Z,10.20
2022-09-24T03:40:36.668Z,10.20
2022-09-24T03:43:07.838Z,10.40
2022-09-24T03:45:39.421Z,10.69
2022-09-24T03:48:07.594Z,10.66
2022-09-24T03:50:39.538Z,10.83
2022-09-24T03:53:18.387Z,10.72
2022-09-24T03:55:56.720Z,10.45
2022-09-24T03:58:31.941Z,10.54
2022-09-24T04:01:02.567Z,10.59
2022-09-24T04:03:32.371Z,10.55
2022-09-24T04:06:06.069Z,10.37
2022-09-24T04:08:36.281Z,10.28
2022-09-24T04:11:06.939Z,10.49
2022-09-24T04:13:36.444Z,10.63
2022-09-24T04:16:07.624Z,10.43
2022-09-24T04:18:41.195Z,10.26
2022-09-24T04:21:16.671Z,10.26
2022-09-24T04:23:47.447Z,10.43
2022-09-24T04:26:24.633Z,10.50
2022-09-24T04:28:52.413Z,10.48
2022-09-24T04:31:29.475Z,10.27
2022-09-24T04:34:00.009Z,10.00
2022-09-24T04:36:30.272Z,9.79
2022-09-24T04:39:03.755Z,9.73
2022-09-24T04:41:31.934Z,9.81
2022-09-24T04:44:02.161Z,10.05
2022-09-24T04:46:34.695Z,10.25
2022-09-24T04:49:09.634Z,10.23
2022-09-24T04:51:37.321Z,10.32
2022-09-24T04:54:08.685Z,10.13
2022-09-24T04:56:39.396Z,10.25
2022-09-24T04:59:12.115Z,10.48
2022-09-24T05:01:40.479Z,10.68
2022-09-24T05:04:14.159Z,10.79
2022-09-24T05:06:45.120Z,10.94
2022-09-24T05:09:13.490Z,10.64
2022-09-24T05:11:44.304Z,10.56
2022-09-24T05:14:12.385Z,10.77
2022-09-24T05:16:48.651Z,10.89
2022-09-24T05:19:19.385Z,10.86
2022-09-24T05:21:48.681Z,10.51
2022-09-24T05:24:20.528Z,10.33
2022-09-24T05:27:09.309Z,10.32
2022-09-24T05:29:46.537Z,10.35
2022-09-24T05:32:22.651Z,10.38
2022-09-24T05:34:51.542Z,10.45
2022-09-24T05:37:20.756Z,10.43
2022-09-24T05:39:48.500Z,9.97
2022-09-24T05:42:16.780Z,9.99
2022-09-24T05:44:51.950Z,10.16
2022-09-24T05:47:20.395Z,10.49
2022-09-24T05:49:48.774Z,10.60
2022-09-24T05:52:19.230Z,10.79
2022-09-24T05:54:47.293Z,10.92
2022-09-24T05:57:16.028Z,10.47
2022-09-24T05:59:46.382Z,10.60
2022-09-24T06:02:15.184Z,10.85
2022-09-24T06:04:43.143Z,10.84
2022-09-24T06:07:12.038Z,10.91
2022-09-24T06:09:39.913Z,10.99
2022-09-24T06:12:19.978Z,11.21
2022-09-24T06:14:51.102Z,10.79
2022-09-24T06:17:18.967Z,10.92
2022-09-24T06:19:49.615Z,10.98
2022-09-24T06:22:26.278Z,11.10
2022-09-24T06:25:02.567Z,11.28
2022-09-24T06:27:34.093Z,11.43
2022-09-24T06:30:08.500Z,11.45
2022-09-24T06:32:40.363Z,11.47
2022-09-24T06:35:22.891Z,11.65
2022-09-24T06:37:54.144Z,11.72
2022-09-24T06:40:26.672Z,12.08
2022-09-24T06:42:57.770Z,11.93
2022-09-24T06:45:34.023Z,12.06
2022-09-24T06:48:11.102Z,12.09
2022-09-24T06:50:46.634Z,12.19
2022-09-24T06:53:18.612Z,12.24
2022-09-24T06:55:47.302Z,12.60
2022-09-24T06:58:23.285Z,12.41
2022-09-24T07:01:04.898Z,12.49
2022-09-24T07:03:41.222Z,12.47
2022-09-24T07:06:15.531Z,12.59
2022-09-24T07:08:45.347Z,12.68
2022-09-24T07:11:14.418Z,12.64
2022-09-24T07:13:45.028Z,12.60
2022-09-24T07:16:12.900Z,12.46
2022-09-24T07:18:50.638Z,11.77
2022-09-24T07:21:22.288Z,11.70
2022-09-24T07:23:58.329Z,11.87
2022-09-24T07:26:29.724Z,11.85
2022-09-24T07:28:57.654Z,12.09
2022-09-24T07:31:25.792Z,12.46
2022-09-24T07:33:53.688Z,12.91
2022-09-24T07:36:24.762Z,12.85
2022-09-24T07:38:52.576Z,13.05
2022-09-24T07:41:20.685Z,13.25
2022-09-24T07:43:50.698Z,13.53
2022-09-24T07:46:20.450Z,13.64
2022-09-24T07:48:51.311Z,13.92
2022-09-24T07:51:29.028Z,13.98
2022-09-24T07:53:59.456Z,14.19
2022-09-24T07:56:27.435Z,13.47
2022-09-24T07:59:00.112Z,13.51
2022-09-24T08:01:28.408Z,13.68
2022-09-24T08:04:00.267Z,13.72
2022-09-24T08:06:35.746Z,13.73
2022-09-24T08:09:07.216Z,13.74
2022-09-24T08:11:41.724Z,13.76
2022-09-24T08:14:14.771Z,13.63
2022-09-24T08:16:42.874Z,13.57
2022-09-24T08:19:14.506Z,13.43
2022-09-24T08:21:44.718Z,13.64
2022-09-24T08:24:23.510Z,13.42
2022-09-24T08:26:51.564Z,13.32
2022-09-24T08:29:19.519Z,13.63
2022-09-24T08:31:48.041Z,13.60
2022-09-24T08:34:19.105Z,13.61
2022-09-24T08:36:50.431Z,13.73
2022-09-24T08:39:25.853Z,14.06
2022-09-24T08:42:39.875Z,14.17
2022-09-24T08:45:29.040Z,14.55
2022-09-24T08:48:20.843Z,15.01
2022-09-24T08:51:18.999Z,14.65
2022-09-24T08:54:00.532Z,15.20
2022-09-24T08:56:34.593Z,15.05
2022-09-24T08:59:23.711Z,14.88
2022-09-24T09:02:02.206Z,14.92
2022-09-24T09:05:19.556Z,14.81
2022-09-24T09:08:33.883Z,14.90
2022-09-24T09:11:03.466Z,15.27
2022-09-24T09:13:45.280Z,15.73
2022-09-24T09:16:28.514Z,15.81
2022-09-24T09:19:05.201Z,15.92
2022-09-24T09:21:47.369Z,15.92
2022-09-24T09:24:23.769Z,16.17
2022-09-24T09:26:59.179Z,15.93
2022-09-24T09:29:34.410Z,15.73
2022-09-24T09:32:33.537Z,15.57
2022-09-24T09:35:41.580Z,15.82
2022-09-24T09:38:45.801Z,16.21
2022-09-24T09:41:32.835Z,16.52
2022-09-24T09:44:14.817Z,16.74
2022-09-24T09:46:53.288Z,17.06
2022-09-24T09:49:23.494Z,17.01
2022-09-24T09:51:55.566Z,17.25
2022-09-24T09:54:41.448Z,17.20
2022-09-24T09:57:23.004Z,17.28
2022-09-24T09:59:57.230Z,17.29
2022-09-24T10:02:39.926Z,17.57
2022-09-24T10:05:26.350Z,17.45
2022-09-24T10:08:03.006Z,17.53
2022-09-24T10:10:31.421Z,17.78
2022-09-24T10:13:19.815Z,18.05
2022-09-24T10:16:00.873Z,18.22
2022-09-24T10:18:47.386Z,18.30
2022-09-24T10:21:31.311Z,18.17
2022-09-24T10:24:12.494Z,18.25
2022-09-24T10:26:45.555Z,18.24
2022-09-24T10:29:44.937Z,17.86
2022-09-24T10:32:30.440Z,18.24
2022-09-24T10:35:07.201Z,18.00
2022-09-24T10:37:35.988Z,18.39
2022-09-24T10:40:24.494Z,18.51
2022-09-24T10:43:03.384Z,18.73
2022-09-24T10:45:51.325Z,18.87
2022-09-24T10:48:38.120Z,18.84
2022-09-24T10:51:47.471Z,18.95
2022-09-24T10:54:59.040Z,19.16
2022-09-24T10:57:49.948Z,18.67
2022-09-24T11:00:27.245Z,18.31
2022-09-24T11:03:32.801Z,18.23
2022-09-24T11:06:19.932Z,18.39
2022-09-24T11:09:12.659Z,18.84
2022-09-24T11:12:38.092Z,18.50
2022-09-24T11:15:48.935Z,18.72
2022-09-24T11:18:56.686Z,18.98
2022-09-24T11:21:58.210Z,19.14
2022-09-24T11:25:04.294Z,19.49
2022-09-24T11:27:44.255Z,19.61
2022-09-24T11:30:30.856Z,19.61
2022-09-24T11:33:26.894Z,19.73
2022-09-24T11:36:16.572Z,19.64
2022-09-24T11:39:15.542Z,19.46
2022-09-24T11:42:29.471Z,19.31
2022-09-24T11:45:38.256Z,19.16
2022-09-24T11:48:38.359Z,19.44
2022-09-24T11:51:38.460Z,19.83
2022-09-24T11:54:26.105Z,19.85
2022-09-24T11:57:09.521Z,19.83
2022-09-24T12:00:19.169Z,19.98
2022-09-24T12:03:04.279Z,19.82
2022-09-24T12:05:47.559Z,20.08
2022-09-24T12:08:40.322Z,20.24
2022-09-24T12:11:32.148Z,20.39
2022-09-24T12:14:15.495Z,20.65
2022-09-24T12:16:48.162Z,20.53
2022-09-24T12:19:37.229Z,20.57
2022-09-24T12:22:10.824Z,20.61
2022-09-24T12:25:03.878Z,20.63
2022-09-24T12:27:37.940Z,20.99
2022-09-24T12:30:42.540Z,20.65
2022-09-24T12:33:33.022Z,20.92
2022-09-24T12:36:28.553Z,20.85
2022-09-24T12:39:16.901Z,20.79
2022-09-24T12:42:01.142Z,20.74
2022-09-24T12:44:52.470Z,20.99
2022-09-24T12:47:33.507Z,20.94
2022-09-24T12:50:16.249Z,20.81
2022-09-24T12:52:45.762Z,21.19
2022-09-24T12:55:29.623Z,20.85
2022-09-24T12:58:42.828Z,20.51
2022-09-24T13:01:27.407Z,20.56
2022-09-24T13:04:22.697Z,20.60
2022-09-24T13:07:28.290Z,20.88
2022-09-24T13:09:58.365Z,21.00
2022-09-24T13:12:43.213Z,21.23
2022-09-24T13:15:45.113Z,21.25
2022-09-24T13:18:20.420Z,21.54
2022-09-24T13:21:19.643Z,21.43
2022-09-24T13:23:53.143Z,21.40
2022-09-24T13:26:36.470Z,21.20
2022-09-24T13:29:24.308Z,21.24
2022-09-24T13:32:00.682Z,21.19
2022-09-24T13:34:35.259Z,21.05
2022-09-24T13:37:11.172Z,21.10
2022-09-24T13:39:51.542Z,21.00
2022-09-24T13:42:46.598Z,20.92
2022-09-24T13:45:26.336Z,20.67
2022-09-24T13:48:06.694Z,20.81
2022-09-24T13:50:50.245Z,20.80
2022-09-24T13:53:28.840Z,20.96
2022-09-24T13:56:19.572Z,21.05
2022-09-24T13:59:09.608Z,21.20
2022-09-24T14:01:44.091Z,21.16
2022-09-24T14:04:23.302Z,21.19
2022-09-24T14:06:57.491Z,20.96
2022-09-24T14:09:40.228Z,21.21
2022-09-24T14:12:22.744Z,21.11
2022-09-24T14:14:57.887Z,21.45
2022-09-24T14:17:33.870Z,21.61
2022-09-24T14:20:02.127Z,21.52
2022-09-24T14:22:35.406Z,21.75
2022-09-24T14:25:21.028Z,21.58
2022-09-24T14:27:55.310Z,21.65
2022-09-24T14:30:29.057Z,21.77
2022-09-24T14:33:17.456Z,21.43
2022-09-24T14:36:11.746Z,21.43
2022-09-24T14:39:05.524Z,21.30
2022-09-24T14:41:38.913Z,21.36
2022-09-24T14:44:35.811Z,21.19
2022-09-24T14:47:21.799Z,21.18
2022-09-24T14:49:53.370Z,21.12
2022-09-24T14:52:38.520Z,21.21
2022-09-24T14:55:22.332Z,21.10
2022-09-24T14:57:56.831Z,21.09
2022-09-24T15:00:28.749Z,21.24
2022-09-24T15:03:15.543Z,21.23
2022-09-24T15:06:01.407Z,21.12
2022-09-24T15:08:30.210Z,21.25
2022-09-24T15:11:16.654Z,21.31
2022-09-24T15:13:58.742Z,21.30
2022-09-24T15:16:34.099Z,21.41
2022-09-24T15:19:27.218Z,21.20
2022-09-24T15:21:57.878Z,21.26
2022-09-24T15:24:26.767Z,21.50
2022-09-24T15:27:06.822Z,21.62
2022-09-24T15:29:35.000Z,21.64
2022-09-24T15:32:06.314Z,21.57
2022-09-24T15:34:35.852Z,21.64
2022-09-24T15:37:03.971Z,21.64
2022-09-24T15:39:32.397Z,21.63
2022-09-24T15:42:02.783Z,21.47
2022-09-24T15:44:34.312Z,21.20
2022-09-24T15:47:02.722Z,21.20
2022-09-24T15:49:34.115Z,21.01
2022-09-24T15:52:24.589Z,21.18
2022-09-24T15:55:04.326Z,20.90
2022-09-24T15:57:36.733Z,20.84
2022-09-24T16:00:05.467Z,20.80
2022-09-24T16:02:39.628Z,20.45
2022-09-24T16:05:16.454Z,20.46
2022-09-24T16:07:45.022Z,20.33
2022-09-24T16:10:15.788Z,20.30
2022-09-24T16:12:43.932Z,20.39
2022-09-24T16:15:16.323Z,20.22
2022-09-24T16:17:51.786Z,20.20
2022-09-24T16:20:19.936Z,20.06
2022-09-24T16:22:47.908Z,20.09
2022-09-24T16:25:16.084Z,19.93
2022-09-24T16:27:44.685Z,20.03
2022-09-24T16:30:15.008Z,19.93
2022-09-24T16:32:46.287Z,19.84
2022-09-24T16:35:16.522Z,19.72
2022-09-24T16:37:50.585Z,19.69
2022-09-24T16:40:21.981Z,19.81
2022-09-24T16:42:50.400Z,19.67
2022-09-24T16:45:18.286Z,19.32
2022-09-24T16:47:46.030Z,19.10
2022-09-24T16:50:17.018Z,19.03
2022-09-24T16:52:50.471Z,19.45
2022-09-24T16:55:18.523Z,19.07
2022-09-24T16:57:49.178Z,19.07
2022-09-24T17:00:24.025Z,19.22
2022-09-24T17:02:53.033Z,18.86
2022-09-24T17:05:21.579Z,18.94
2022-09-24T17:07:55.822Z,18.81
2022-09-24T17:10:27.564Z,18.64
2022-09-24T17:12:56.806Z,18.70
2022-09-24T17:15:25.357Z,18.59
2022-09-24T17:17:55.012Z,18.62
2022-09-24T17:20:31.843Z,18.63
2022-09-24T17:23:00.676Z,18.32
2022-09-24T17:25:29.702Z,17.80
2022-09-24T17:27:57.561Z,17.85
2022-09-24T17:30:39.254Z,17.73
2022-09-24T17:33:25.312Z,17.42
2022-09-24T17:36:05.997Z,17.51
2022-09-24T17:38:37.237Z,17.46
2022-09-24T17:41:15.242Z,17.37
2022-09-24T17:43:44.149Z,17.11
2022-09-24T17:46:23.399Z,17.09
2022-09-24T17:48:58.346Z,16.98
2022-09-24T17:51:35.515Z,17.12
2022-09-24T17:54:16.280Z,17.38
2022-09-24T17:56:47.016Z,17.16
2022-09-24T17:59:22.880Z,16.94
2022-09-24T18:01:57.401Z,16.89
2022-09-24T18:04:27.213Z,16.84
2022-09-24T18:06:56.440Z,16.88
2022-09-24T18:09:25.607Z,16.94
2022-09-24T18:11:54.912Z,16.78
2022-09-24T18:14:28.309Z,16.60
2022-09-24T18:17:00.584Z,16.32
2022-09-24T18:19:29.589Z,16.25
2022-09-24T18:22:07.979Z,16.05
2022-09-24T18:24:38.866Z,16.13
2022-09-24T18:27:10.389Z,16.12
2022-09-24T18:29:41.022Z,16.03
2022-09-24T18:32:14.899Z,15.88
2022-09-24T18:34:45.768Z,15.91
2022-09-24T18:37:20.187Z,16.03
2022-09-24T18:39:53.920Z,16.08
2022-09-24T18:42:31.565Z,16.24
2022-09-24T18:45:09.888Z,16.17
2022-09-24T18:47:41.432Z,16.09
2022-09-24T18:50:21.816Z,15.92
2022-09-24T18:52:50.705Z,15.94
2022-09-24T18:55:22.545Z,15.87
2022-09-24T18:57:55.943Z,15.78
2022-09-24T19:00:45.944Z,15.83
2022-09-24T19:03:14.642Z,15.93
2022-09-24T19:05:56.324Z,15.75
2022-09-24T19:08:37.787Z,15.87
2022-09-24T19:11:14.471Z,15.91
2022-09-24T19:13:55.253Z,15.86
2022-09-24T19:16:24.988Z,15.99
2022-09-24T19:18:59.020Z,15.82
2022-09-24T19:21:32.888Z,15.92
2022-09-24T19:24:03.189Z,15.83
2022-09-24T19:26:41.536Z,15.84
2022-09-24T19:29:11.414Z,15.70
2022-09-24T19:31:48.308Z,15.86
2022-09-24T19:34:17.304Z,15.78
2022-09-24T19:36:45.787Z,15.67
2022-09-24T19:39:21.514Z,15.80
2022-09-24T19:41:53.537Z,15.72
2022-09-24T19:44:24.420Z,15.52
2022-09-24T19:46:59.370Z,15.37
2022-09-24T19:49:30.500Z,15.23
2022-09-24T19:52:00.617Z,15.26
2022-09-24T19:54:30.738Z,15.20
2022-09-24T19:56:58.086Z,15.15
2022-09-24T19:59:25.952Z,15.25
2022-09-24T20:01:56.413Z,15.36
2022-09-24T20:04:24.850Z,15.41
2022-09-24T20:07:01.172Z,15.55
2022-09-24T20:09:32.946Z,15.36
2022-09-24T20:12:02.899Z,15.51
2022-09-24T20:14:37.234Z,15.39
2022-09-24T20:17:07.974Z,15.17
2022-09-24T20:19:48.149Z,15.15
2022-09-24T20:22:28.864Z,15.36
2022-09-24T20:24:59.519Z,15.19
2022-09-24T20:27:49.310Z,15.57
2022-09-24T20:30:25.866Z,15.27
2022-09-24T20:32:54.796Z,15.26
2022-09-24T20:35:26.405Z,15.05
2022-09-24T20:37:56.423Z,15.03
2022-09-24T20:40:30.089Z,15.10
2022-09-24T20:43:10.098Z,15.12
2022-09-24T20:45:41.736Z,15.11
2022-09-24T20:48:15.399Z,15.28
2022-09-24T20:50:46.682Z,15.26
2022-09-24T20:53:15.972Z,15.31
2022-09-24T20:55:44.672Z,15.52
2022-09-24T20:58:22.089Z,15.36
2022-09-24T21:00:55.933Z,15.25
2022-09-24T21:03:42.775Z,15.13
2022-09-24T21:06:18.428Z,15.13
2022-09-24T21:08:48.364Z,15.22
2022-09-24T21:11:30.709Z,15.34
2022-09-24T21:14:06.360Z,15.23
2022-09-24T21:16:38.980Z,15.16
2022-09-24T21:19:08.472Z,14.79
2022-09-24T21:21:39.845Z,14.77
2022-09-24T21:24:17.529Z,14.80
2022-09-24T21:26:47.191Z,14.88
2022-09-24T21:29:24.911Z,15.05
2022-09-24T21:31:53.562Z,15.04
2022-09-24T21:34:22.527Z,15.24
2022-09-24T21:36:55.318Z,15.35
2022-09-24T21:39:29.941Z,15.09
2022-09-24T21:42:00.292Z,14.99
2022-09-24T21:44:36.957Z,14.96
2022-09-24T21:47:13.164Z,15.09
2022-09-24T21:49:44.561Z,15.22
2022-09-24T21:52:17.333Z,15.08
2022-09-24T21:54:54.126Z,14.99
2022-09-24T21:57:25.531Z,14.95
2022-09-24T22:00:07.431Z,14.84
2022-09-24T22:02:46.337Z,14.72
2022-09-24T22:05:19.348Z,14.60
2022-09-24T22:07:50.376Z,14.64
2022-09-24T22:10:18.551Z,14.59
2022-09-24T22:12:48.497Z,14.71
2022-09-24T22:15:20.308Z,14.72
2022-09-24T22:17:55.395Z,14.89
2022-09-24T22:20:24.229Z,14.88
2022-09-24T22:22:56.549Z,14.70
2022-09-24T22:25:31.568Z,14.70
2022-09-24T22:28:04.451Z,14.58
2022-09-24T22:30:39.634Z,14.60
2022-09-24T22:33:09.629Z,14.55
2022-09-24T22:35:51.727Z,14.54
2022-09-24T22:38:23.618Z,14.61
2022-09-24T22:40:55.115Z,14.73
2022-09-24T22:43:25.443Z,14.69
2022-09-24T22:46:09.700Z,14.78
2022-09-24T22:48:38.302Z,14.85
2022-09-24T22:51:11.554Z,14.93
2022-09-24T22:53:42.234Z,14.93
2022-09-24T22:56:22.564Z,15.04
2022-09-24T22:58:59.559Z,15.09
2022-09-24T23:01:45.756Z,15.15
2022-09-24T23:04:16.475Z,15.15
2022-09-24T23:06:44.527Z,15.03
2022-09-24T23:09:16.327Z,15.05
2022-09-24T23:11:45.910Z,14.92
2022-09-24T23:14:18.386Z,14.96
2022-09-24T23:16:48.674Z,15.13
2022-09-24T23:19:22.109Z,15.18
2022-09-24T23:21:49.767Z,15.03
2022-09-24T23:24:20.090Z,14.93
2022-09-24T23:26:50.514Z,15.20
2022-09-24T23:29:18.477Z,15.10
2022-09-24T23:31:46.343Z,15.23
2022-09-24T23:34:15.436Z,15.10
2022-09-24T23:36:46.505Z,14.98
2022-09-24T23:39:21.653Z,15.00
2022-09-24T23:41:52.988Z,14.97
2022-09-24T23:44:24.518Z,14.85
2022-09-24T23:47:04.762Z,15.04
2022-09-24T23:49:37.285Z,14.92
2022-09-24T23:52:08.942Z,14.76
2022-09-24T23:54:39.710Z,14.96
2022-09-24T23:57:13.361Z,15.10
2022-09-24T23:59:46.275Z,15.08
